Kidder, South Dakota
Current Conditions -  °F | °C
As of 3:55 PM on Friday 31 Oct 2014 (Local Time) from KGWR Reporting Station
Clear Clear  
Wind Chill: 35°   Ceiling: Unl
Heat Index: 41°   Visibility: 10mi
Dew Point: 23°   Wind: 10mph
Humidity: 49%   Direction: 140°SE
Pressure: 30.45"   Gusts: NA
Location:  45.8144°N, 97.7089°W
Report Text: KGWR 312055Z AUTO 14009KT 10SM CLR 05/M05 A3045 RMK A01 P000
Loading
Personal Weather Stations






























Interactive Weather Map
Tropical Storm Tracking
New forecast layout! Learn more

10-Day Weather Forecast

Advertisements
Track Severe Weather on mobile